Time;durP1;ratioP1;P1;durP2;ratioP2;P2;SDS_P1;SDS_P2;PMS_P1;PMS_P2;Temp;Humidity;BMP_temperature;BMP_pressure;BME280_temperature;BME280_humidity;BME280_pressure;Samples;Min_cycle;Max_cycle;Signal;HPM_P1;HPM_P2
2021/10/10 00:01:43;;;;;;;25.42;14.57;;;;;;;11.30;58.42;102722.22;4967625;28;118858;-70
2021/10/10 00:04:11;;;;;;;25.25;14.25;;;;;;;11.29;58.39;102728.44;4955429;28;124159;-70
2021/10/10 00:06:38;;;;;;;23.75;13.70;;;;;;;11.26;58.31;102729.38;4963484;28;124064;-70
2021/10/10 00:09:05;;;;;;;27.95;14.82;;;;;;;11.25;58.32;102734.72;4958633;28;119164;-70
2021/10/10 00:11:32;;;;;;;28.83;15.43;;;;;;;11.21;58.46;102727.72;4956648;28;118346;-70
2021/10/10 00:13:59;;;;;;;27.80;15.27;;;;;;;11.20;58.39;102723.31;4962392;28;124828;-70
2021/10/10 00:16:27;;;;;;;27.05;15.52;;;;;;;11.18;58.40;102727.75;4956396;28;124892;-69
2021/10/10 00:18:54;;;;;;;27.52;15.10;;;;;;;11.16;58.35;102730.44;4957223;28;120032;-70
2021/10/10 00:21:21;;;;;;;27.90;14.90;;;;;;;11.13;58.14;102730.47;4958403;28;118970;-69
2021/10/10 00:23:48;;;;;;;22.80;13.13;;;;;;;11.11;58.28;102732.28;4960182;28;124044;-69
2021/10/10 00:26:15;;;;;;;25.95;14.57;;;;;;;11.09;58.21;102729.69;4956602;28;124696;-69
2021/10/10 00:28:43;;;;;;;28.35;14.40;;;;;;;11.05;58.23;102733.25;4959571;28;120072;-69
2021/10/10 00:31:10;;;;;;;25.30;14.27;;;;;;;11.02;58.39;102738.63;4956458;28;119601;-69
2021/10/10 00:33:37;;;;;;;22.73;13.80;;;;;;;11.00;58.41;102729.81;4955013;28;124365;-69
2021/10/10 00:36:04;;;;;;;22.65;14.13;;;;;;;10.98;58.35;102725.44;4959716;28;123793;-69
2021/10/10 00:38:31;;;;;;;25.50;13.85;;;;;;;10.96;58.29;102728.09;4956573;28;121004;-69
2021/10/10 00:40:58;;;;;;;23.63;13.48;;;;;;;10.92;58.20;102729.06;4954702;28;120149;-69
2021/10/10 00:43:25;;;;;;;23.30;12.85;;;;;;;10.91;58.24;102729.97;4958002;28;124583;-69
2021/10/10 00:45:53;;;;;;;26.90;13.55;;;;;;;10.89;58.48;102726.47;4959067;28;125861;-69
2021/10/10 00:48:21;;;;;;;25.25;13.60;;;;;;;10.86;58.63;102721.22;4956573;28;119307;-69
2021/10/10 00:50:48;;;;;;;20.75;12.20;;;;;;;10.85;58.54;102724.75;4957708;28;119784;-69
2021/10/10 00:53:17;;;;;;;20.92;12.50;;;;;;;10.83;58.31;102723.91;4953705;28;124042;-69
2021/10/10 00:55:51;;;;;;;20.67;12.32;;;;;;;10.80;58.14;102721.31;4978353;22;124091;-64
2021/10/10 00:58:24;;;;;;;20.05;11.13;;;;;;;10.77;58.25;102710.75;4967691;28;119568;-63
2021/10/10 01:00:52;;;;;;;21.40;11.88;;;;;;;10.74;58.23;102710.78;4971184;28;119290;-64
2021/10/10 01:03:21;;;;;;;19.58;12.27;;;;;;;10.68;58.30;102707.34;4968939;28;123892;-64
2021/10/10 01:05:48;;;;;;;19.05;11.77;;;;;;;10.67;58.39;102716.19;4975112;28;124010;-64
2021/10/10 01:08:17;;;;;;;22.30;12.55;;;;;;;10.64;58.10;102707.41;4979879;28;119786;-64
2021/10/10 01:10:46;;;;;;;22.20;12.20;;;;;;;10.62;58.37;102696.81;4987543;28;119161;-65
2021/10/10 01:13:14;;;;;;;20.95;11.55;;;;;;;10.59;58.60;102696.91;4987674;28;126838;-64
2021/10/10 01:15:42;;;;;;;20.15;12.43;;;;;;;10.59;58.42;102696.91;4986692;28;124195;-64
2021/10/10 01:18:09;;;;;;;23.67;12.75;;;;;;;10.57;58.54;102703.09;4970772;28;118153;-64
2021/10/10 01:20:43;;;;;;;25.52;12.88;;;;;;;10.54;58.28;102698.72;4970768;28;118026;-64
2021/10/10 01:23:10;;;;;;;21.20;11.95;;;;;;;10.54;58.63;102697.88;4987227;28;124392;-64
2021/10/10 01:25:38;;;;;;;23.73;12.80;;;;;;;10.52;58.76;102689.94;4968666;28;124740;-64
2021/10/10 01:28:05;;;;;;;21.52;13.18;;;;;;;10.48;58.28;102689.09;4987323;28;120616;-65
2021/10/10 01:30:33;;;;;;;20.70;11.77;;;;;;;10.46;58.57;102690.03;4983604;28;120333;-65
2021/10/10 01:33:01;;;;;;;20.80;11.98;;;;;;;10.44;58.74;102686.53;4985568;28;124125;-65
2021/10/10 01:35:29;;;;;;;22.38;12.38;;;;;;;10.42;58.78;102693.63;4985952;28;123910;-64
2021/10/10 01:37:56;;;;;;;21.15;12.30;;;;;;;10.41;58.47;102686.56;4953054;28;118190;-64
2021/10/10 01:40:24;;;;;;;19.55;12.30;;;;;;;10.39;58.39;102688.38;4970048;28;118204;-64
2021/10/10 01:42:51;;;;;;;22.15;10.90;;;;;;;10.38;58.50;102681.31;4985224;28;124813;-65
2021/10/10 01:45:23;;;;;;;19.23;11.68;;;;;;;10.36;58.66;102685.75;4968074;28;123802;-64
2021/10/10 01:47:50;;;;;;;19.48;11.65;;;;;;;10.33;58.73;102684.91;4970498;28;118280;-64
2021/10/10 01:50:18;;;;;;;19.00;11.15;;;;;;;10.31;58.61;102676.09;4987728;28;119071;-65
2021/10/10 01:52:50;;;;;;;21.50;11.68;;;;;;;10.30;58.89;102674.38;4988722;28;124130;-64
2021/10/10 01:55:18;;;;;;;18.92;11.25;;;;;;;10.29;58.59;102677.88;4988393;28;124188;-64
2021/10/10 01:57:46;;;;;;;18.15;10.77;;;;;;;10.26;58.63;102677.91;4973333;28;118312;-65
2021/10/10 02:00:13;;;;;;;15.77;9.48;;;;;;;10.25;58.48;102681.47;4987863;28;119093;-64
2021/10/10 02:02:41;;;;;;;16.75;9.32;;;;;;;10.23;58.45;102683.25;4990540;28;124141;-64
2021/10/10 02:05:10;;;;;;;16.83;9.07;;;;;;;10.19;58.65;102676.25;4990282;28;124083;-64
2021/10/10 02:07:38;;;;;;;15.20;9.18;;;;;;;10.18;58.57;102669.19;4988411;28;118427;-64
2021/10/10 02:10:08;;;;;;;16.10;9.32;;;;;;;10.15;58.73;102674.53;4969346;28;119122;-64
2021/10/10 02:12:36;;;;;;;16.00;10.05;;;;;;;10.12;58.70;102674.59;4968074;28;125141;-64
2021/10/10 02:15:05;;;;;;;15.07;9.18;;;;;;;10.10;58.43;102671.09;4988753;28;124576;-64
2021/10/10 02:17:32;;;;;;;16.13;9.65;;;;;;;10.07;58.37;102665.81;4987936;28;120132;-64
2021/10/10 02:19:59;;;;;;;16.50;10.32;;;;;;;10.05;58.31;102667.63;4972699;28;120084;-64
2021/10/10 02:22:27;;;;;;;16.08;9.98;;;;;;;10.03;58.62;102664.13;4988155;28;124346;-63
2021/10/10 02:24:54;;;;;;;18.13;10.38;;;;;;;10.01;58.58;102665.91;4988037;28;124775;-63
2021/10/10 02:27:21;;;;;;;16.58;9.75;;;;;;;9.97;58.53;102669.50;4989480;28;120024;-63
2021/10/10 02:29:48;;;;;;;14.80;9.25;;;;;;;9.94;58.34;102660.72;4988029;28;119412;-63
2021/10/10 02:32:16;;;;;;;15.35;8.45;;;;;;;9.92;58.50;102661.59;4973036;28;122892;-63
2021/10/10 02:34:43;;;;;;;13.85;7.93;;;;;;;9.90;58.66;102658.97;4988911;28;124040;-63
2021/10/10 02:37:10;;;;;;;13.90;8.40;;;;;;;9.87;58.83;102659.03;4990790;28;119660;-63
2021/10/10 02:39:37;;;;;;;13.45;8.20;;;;;;;9.84;58.68;102659.06;4988361;28;118860;-63
2021/10/10 02:42:06;;;;;;;16.02;9.80;;;;;;;9.81;58.49;102653.78;4988811;28;124283;-63
2021/10/10 02:44:36;;;;;;;17.90;9.80;;;;;;;9.79;58.74;102660.03;4987010;28;123177;-63
2021/10/10 02:47:03;;;;;;;15.77;9.13;;;;;;;9.77;58.89;102657.38;4972301;28;118407;-63
2021/10/10 02:49:30;;;;;;;13.75;8.70;;;;;;;9.74;58.67;102657.44;4971912;28;117964;-63
2021/10/10 02:51:57;;;;;;;15.32;8.07;;;;;;;9.72;58.84;102656.59;4977283;28;124328;-63
2021/10/10 02:54:25;;;;;;;15.73;8.52;;;;;;;9.69;58.91;102653.97;4989660;28;123770;-63
2021/10/10 02:56:53;;;;;;;15.85;8.80;;;;;;;9.67;58.82;102655.75;4989980;28;119225;-63
2021/10/10 02:59:20;;;;;;;14.20;8.63;;;;;;;9.65;58.98;102654.91;4970929;28;118443;-63
2021/10/10 03:01:47;;;;;;;16.63;8.75;;;;;;;9.63;58.80;102654.06;4987560;28;124796;-63
2021/10/10 03:04:14;;;;;;;14.02;8.40;;;;;;;9.61;58.90;102655.84;4980152;28;123877;-63
2021/10/10 03:06:41;;;;;;;15.85;8.75;;;;;;;9.59;59.05;102653.22;4989416;28;120874;-63
2021/10/10 03:09:09;;;;;;;19.80;9.85;;;;;;;9.58;59.12;102650.56;4969103;28;118915;-63
2021/10/10 03:11:36;;;;;;;15.05;8.55;;;;;;;9.56;58.84;102653.22;4966798;28;124029;-63
2021/10/10 03:14:03;;;;;;;16.13;9.05;;;;;;;9.53;58.93;102648.88;4986819;28;124264;-63
2021/10/10 03:16:32;;;;;;;19.17;9.48;;;;;;;9.51;58.84;102655.94;4971465;28;118127;-63
2021/10/10 03:18:59;;;;;;;18.77;8.80;;;;;;;9.50;58.81;102648.88;4984022;28;118750;-63
2021/10/10 03:21:27;;;;;;;16.17;9.77;;;;;;;9.49;59.14;102646.25;4982404;28;124113;-63
2021/10/10 03:23:54;;;;;;;17.52;9.88;;;;;;;9.47;59.17;102648.91;4969726;28;123020;-63
2021/10/10 03:26:22;;;;;;;17.55;10.10;;;;;;;9.46;59.14;102649.81;4989786;28;119395;-63
2021/10/10 03:28:49;;;;;;;16.75;9.95;;;;;;;9.45;59.23;102645.41;4986410;28;119112;-62
2021/10/10 03:31:16;;;;;;;20.33;11.57;;;;;;;9.45;59.19;102650.69;4984683;28;124576;-63
2021/10/10 03:33:44;;;;;;;19.25;11.00;;;;;;;9.45;59.22;102656.00;4986220;28;123956;-63
2021/10/10 03:36:11;;;;;;;23.45;11.93;;;;;;;9.45;59.27;102657.78;4971414;28;118379;-64
2021/10/10 03:38:38;;;;;;;23.13;12.30;;;;;;;9.43;59.35;102655.13;4985726;28;119027;-63
2021/10/10 03:41:06;;;;;;;22.10;11.82;;;;;;;9.41;59.32;102659.56;4985161;28;124322;-63
2021/10/10 03:43:34;;;;;;;22.95;11.68;;;;;;;9.38;59.10;102659.63;4986357;28;124745;-64
2021/10/10 03:46:01;;;;;;;22.77;11.93;;;;;;;9.37;59.37;102657.84;4988871;28;119843;-63
2021/10/10 03:48:28;;;;;;;23.30;11.65;;;;;;;9.37;59.25;102652.56;4988501;28;119441;-63
2021/10/10 03:50:55;;;;;;;21.42;11.52;;;;;;;9.35;59.14;102649.06;4986393;28;124065;-63
2021/10/10 03:53:31;;;;;;;20.48;10.85;;;;;;;9.34;59.43;102648.19;4986505;28;123716;-63
2021/10/10 03:55:59;;;;;;;19.77;10.93;;;;;;;9.34;59.20;102642.91;4969835;28;120818;-64
2021/10/10 03:58:26;;;;;;;22.80;11.77;;;;;;;9.34;59.30;102648.19;4987013;28;120016;-63
2021/10/10 04:00:53;;;;;;;22.73;11.75;;;;;;;9.34;59.31;102649.94;4986138;28;123901;-64
2021/10/10 04:03:20;;;;;;;22.25;11.98;;;;;;;9.34;59.34;102648.19;4971258;28;123317;-63
2021/10/10 04:05:48;;;;;;;27.20;12.05;;;;;;;9.33;59.12;102650.84;4971579;28;118208;-63
2021/10/10 04:08:15;;;;;;;24.38;12.23;;;;;;;9.31;59.28;102653.50;4985812;28;119090;-63
2021/10/10 04:10:43;;;;;;;22.83;11.90;;;;;;;9.30;59.49;102651.75;4967933;28;124698;-63
2021/10/10 04:13:10;;;;;;;23.33;12.90;;;;;;;9.30;59.29;102650.88;4986995;28;124825;-63
2021/10/10 04:15:37;;;;;;;25.50;12.93;;;;;;;9.29;59.35;102654.44;4987017;28;119197;-63
2021/10/10 04:18:05;;;;;;;21.48;12.00;;;;;;;9.28;59.34;102650.00;4986404;28;119446;-63
2021/10/10 04:20:33;;;;;;;23.55;11.13;;;;;;;9.25;59.35;102658.88;4986011;28;124547;-64
2021/10/10 04:23:00;;;;;;;20.75;11.30;;;;;;;9.23;59.23;102654.47;4986418;28;124305;-63
2021/10/10 04:25:28;;;;;;;21.92;11.57;;;;;;;9.20;59.25;102654.53;4987142;28;119474;-63
2021/10/10 04:27:55;;;;;;;28.17;11.40;;;;;;;9.15;59.22;102652.81;4967282;28;119789;-63
2021/10/10 04:30:22;;;;;;;18.45;10.43;;;;;;;9.12;59.53;102652.81;4985866;28;124048;-63
2021/10/10 04:32:50;;;;;;;16.67;10.40;;;;;;;9.10;59.57;102649.31;4968233;28;123947;-64
2021/10/10 04:35:17;;;;;;;18.08;10.88;;;;;;;9.08;59.27;102645.81;4984076;28;119040;-63
2021/10/10 04:37:45;;;;;;;18.60;10.32;;;;;;;9.06;59.59;102637.03;4955203;28;118887;-63
2021/10/10 04:40:13;;;;;;;19.42;11.07;;;;;;;9.07;59.57;102648.47;4985472;28;124360;-63
2021/10/10 04:42:40;;;;;;;18.80;10.52;;;;;;;9.06;59.64;102647.59;4985589;28;122956;-64
2021/10/10 04:45:08;;;;;;;20.00;10.90;;;;;;;9.05;59.70;102645.84;4987655;28;120596;-63
2021/10/10 04:47:35;;;;;;;16.67;10.30;;;;;;;9.03;59.58;102647.63;4971131;28;119029;-63
2021/10/10 04:50:03;;;;;;;17.77;10.63;;;;;;;9.01;59.32;102654.69;4985645;28;124198;-63
2021/10/10 04:52:31;;;;;;;22.67;10.70;;;;;;;8.99;59.35;102650.31;4987623;28;127125;-63
2021/10/10 04:54:58;;;;;;;19.58;10.85;;;;;;;8.96;59.62;102645.91;4970635;28;119230;-63
2021/10/10 04:57:25;;;;;;;17.60;10.60;;;;;;;8.93;59.56;102648.63;4970755;28;121242;-63
2021/10/10 04:59:52;;;;;;;18.25;10.18;;;;;;;8.92;59.51;102646.84;4984869;28;124151;-64
2021/10/10 05:02:22;;;;;;;18.35;10.40;;;;;;;8.89;59.48;102649.50;4985968;28;124802;-64
2021/10/10 05:04:55;;;;;;;17.08;10.05;;;;;;;8.88;59.47;102648.63;4967277;28;120663;-64
2021/10/10 05:07:22;;;;;;;16.75;9.35;;;;;;;8.86;59.45;102645.13;4987744;28;119369;-63
2021/10/10 05:09:49;;;;;;;17.13;9.20;;;;;;;8.86;59.40;102649.56;4987156;28;124784;-63
2021/10/10 05:12:16;;;;;;;15.32;9.48;;;;;;;8.85;59.72;102658.34;4964554;28;124018;-63
2021/10/10 05:14:44;;;;;;;18.00;10.00;;;;;;;8.85;59.44;102653.06;4984210;28;119553;-64
2021/10/10 05:17:11;;;;;;;14.43;8.82;;;;;;;8.84;59.74;102656.63;4988168;28;119164;-64
2021/10/10 05:19:39;;;;;;;18.25;9.90;;;;;;;8.84;59.35;102661.91;4983451;28;124849;-64
2021/10/10 05:22:06;;;;;;;16.00;9.25;;;;;;;8.83;59.36;102654.84;4987232;28;123907;-64
2021/10/10 05:24:33;;;;;;;16.73;9.13;;;;;;;8.83;59.59;102644.28;4991431;28;119306;-63
2021/10/10 05:27:01;;;;;;;19.15;9.75;;;;;;;8.82;59.42;102653.13;4991810;28;118583;-63
2021/10/10 05:29:28;;;;;;;17.52;9.43;;;;;;;8.81;59.53;102651.34;4955334;28;122955;-63
2021/10/10 05:31:55;;;;;;;19.88;10.07;;;;;;;8.79;59.63;102647.84;4987102;28;124301;-63
2021/10/10 05:34:23;;;;;;;19.52;10.30;;;;;;;8.80;59.40;102657.50;4989962;28;120458;-63
2021/10/10 05:36:50;;;;;;;18.77;9.25;;;;;;;8.79;59.57;102655.78;4991366;28;119871;-63
2021/10/10 05:39:17;;;;;;;17.35;9.70;;;;;;;8.79;59.42;102654.00;4986506;28;123894;-64
2021/10/10 05:41:45;;;;;;;22.33;9.82;;;;;;;8.77;59.47;102651.38;4988189;28;123971;-63
2021/10/10 05:44:12;;;;;;;17.50;9.95;;;;;;;8.78;59.63;102652.25;4985989;28;119300;-64
2021/10/10 05:46:39;;;;;;;15.80;9.75;;;;;;;8.76;59.48;102649.63;4989516;28;119858;-64
2021/10/10 05:49:07;;;;;;;14.57;8.93;;;;;;;8.73;59.79;102649.63;4986353;28;126833;-64
2021/10/10 05:51:35;;;;;;;14.77;9.65;;;;;;;8.72;59.59;102642.63;4986907;28;124018;-64
2021/10/10 05:54:03;;;;;;;15.20;9.27;;;;;;;8.70;59.74;102644.41;4991408;28;120549;-64
2021/10/10 05:56:33;;;;;;;13.93;8.75;;;;;;;8.67;59.53;102648.84;4988050;28;119255;-64
2021/10/10 05:59:06;;;;;;;13.82;9.10;;;;;;;8.66;59.64;102653.22;4986590;28;123893;-64
2021/10/10 06:01:39;;;;;;;14.48;9.30;;;;;;;8.66;59.99;102647.94;4991126;28;123864;-64
2021/10/10 06:04:07;;;;;;;17.15;9.60;;;;;;;8.66;59.77;102657.63;4972523;28;119985;-64
2021/10/10 06:06:34;;;;;;;17.00;9.85;;;;;;;8.65;59.52;102662.03;4972738;28;118023;-64
2021/10/10 06:09:05;;;;;;;16.42;9.38;;;;;;;8.64;59.54;102668.19;4987933;28;124054;-65
2021/10/10 06:11:36;;;;;;;16.17;8.93;;;;;;;8.63;59.72;102674.38;4988014;28;124658;-64
2021/10/10 06:14:04;;;;;;;18.63;8.75;;;;;;;8.62;59.58;102672.63;4990901;28;119110;-63
2021/10/10 06:16:32;;;;;;;14.73;8.35;;;;;;;8.61;59.85;102676.16;4991011;28;119116;-64
2021/10/10 06:19:00;;;;;;;15.13;8.82;;;;;;;8.59;59.94;102677.94;4986812;28;124380;-64
2021/10/10 06:21:29;;;;;;;15.05;9.02;;;;;;;8.59;59.72;102677.94;4987908;28;124764;-64
2021/10/10 06:23:56;;;;;;;17.05;8.93;;;;;;;8.60;59.94;102677.03;4988387;28;120015;-64
2021/10/10 06:26:24;;;;;;;13.50;8.43;;;;;;;8.58;59.61;102670.91;4973751;28;118854;-65
2021/10/10 06:28:51;;;;;;;16.38;8.70;;;;;;;8.57;59.60;102670.03;4968974;28;123590;-64
2021/10/10 06:31:19;;;;;;;15.27;9.25;;;;;;;8.57;59.77;102663.88;4970959;28;124764;-64
2021/10/10 06:33:46;;;;;;;14.30;8.82;;;;;;;8.56;59.67;102667.38;4987381;28;120085;-64
2021/10/10 06:36:19;;;;;;;13.20;8.50;;;;;;;8.56;60.10;102659.47;4971963;28;116882;-64
2021/10/10 06:38:48;;;;;;;14.40;8.73;;;;;;;8.59;59.92;102667.38;4988613;28;124010;-64
2021/10/10 06:41:15;;;;;;;12.38;7.60;;;;;;;8.61;59.83;102665.59;4988010;28;122922;-64
2021/10/10 06:43:42;;;;;;;13.70;8.40;;;;;;;8.64;59.91;102670.84;4985633;28;119587;-64
2021/10/10 06:46:09;;;;;;;12.82;8.43;;;;;;;8.66;59.91;102669.06;4989452;28;118817;-64
2021/10/10 06:48:37;;;;;;;15.10;9.20;;;;;;;8.69;60.14;102663.78;4968609;28;123188;-64
2021/10/10 06:51:04;;;;;;;16.75;9.88;;;;;;;8.74;60.14;102666.38;4988853;28;123796;-64
2021/10/10 06:53:31;;;;;;;15.20;8.73;;;;;;;8.79;60.47;102679.53;4987480;28;119576;-64
2021/10/10 06:56:04;;;;;;;18.40;8.55;;;;;;;8.84;60.11;102683.03;4989593;28;118924;-65
2021/10/10 06:58:32;;;;;;;15.10;9.38;;;;;;;8.89;60.69;102675.94;4989376;28;124776;-64
2021/10/10 07:00:59;;;;;;;16.02;9.38;;;;;;;8.94;60.41;102682.06;4985287;28;124171;-64
2021/10/10 07:03:27;;;;;;;16.38;10.15;;;;;;;9.00;60.40;102673.19;4987743;28;120107;-64
2021/10/10 07:05:54;;;;;;;20.85;10.63;;;;;;;9.06;60.76;102662.56;4989186;28;120161;-63
2021/10/10 07:08:21;;;;;;;22.10;10.57;;;;;;;9.12;60.75;102658.09;4987680;28;124078;-63
2021/10/10 07:10:48;;;;;;;21.90;11.57;;;;;;;9.15;60.39;102657.19;4982102;28;123802;-64
2021/10/10 07:13:16;;;;;;;17.27;11.25;;;;;;;9.18;60.27;102656.31;4984083;28;122423;-64
2021/10/10 07:15:43;;;;;;;20.75;11.25;;;;;;;9.19;60.56;102652.75;4987033;28;119974;-64
2021/10/10 07:18:10;;;;;;;20.27;12.20;;;;;;;9.20;60.44;102654.53;4987739;28;124096;-63
2021/10/10 07:26:00;;;;;;;22.60;11.20;;;;;;;9.32;60.99;102654.38;4989250;28;119143;-64
2021/10/10 07:28:28;;;;;;;20.98;11.63;;;;;;;9.37;61.07;102652.56;4987948;28;123495;-63
2021/10/10 07:30:57;;;;;;;22.65;11.32;;;;;;;9.42;60.65;102657.78;4987708;28;124440;-63
2021/10/10 07:33:24;;;;;;;20.65;12.10;;;;;;;9.48;60.99;102663.91;4972406;28;119392;-63
2021/10/10 07:35:51;;;;;;;19.08;11.82;;;;;;;9.56;61.07;102663.81;4972092;28;119210;-64
2021/10/10 07:38:18;;;;;;;19.85;12.02;;;;;;;9.65;61.51;102654.91;4989231;28;124070;-63
2021/10/10 07:40:47;;;;;;;22.55;12.20;;;;;;;9.74;61.33;102646.84;4987820;28;124338;-64
2021/10/10 07:43:14;;;;;;;20.90;12.23;;;;;;;9.81;61.24;102648.50;4987721;28;119089;-63
2021/10/10 07:45:42;;;;;;;21.20;12.35;;;;;;;9.88;61.18;102660.78;4969894;28;119254;-63
2021/10/10 07:48:10;;;;;;;20.77;12.75;;;;;;;9.98;61.47;102665.94;4971932;28;123798;-64
2021/10/10 07:50:39;;;;;;;23.42;12.68;;;;;;;10.06;61.29;102648.22;4989757;28;123737;-63
2021/10/10 07:53:06;;;;;;;21.67;12.75;;;;;;;10.15;61.15;102658.66;4987408;28;119091;-64
2021/10/10 07:55:34;;;;;;;23.63;13.05;;;;;;;10.23;61.46;102667.38;4988365;28;119364;-64
2021/10/10 07:58:02;;;;;;;23.58;13.27;;;;;;;10.33;61.29;102665.50;4990457;28;123891;-64
2021/10/10 08:00:33;;;;;;;18.52;12.02;;;;;;;10.42;61.32;102661.84;4989032;28;123840;-63
2021/10/10 08:03:04;;;;;;;19.70;12.23;;;;;;;10.51;61.73;102659.94;4986033;28;119764;-64
2021/10/10 08:05:43;;;;;;;20.77;12.68;;;;;;;10.62;61.66;102654.44;4979223;28;119939;-63
2021/10/10 08:08:14;;;;;;;21.42;12.73;;;;;;;10.71;61.50;102653.41;4985750;28;123974;-63
2021/10/10 08:10:42;;;;;;;21.23;13.07;;;;;;;10.81;61.42;102648.84;4989508;28;124529;-64
2021/10/10 08:13:12;;;;;;;20.38;12.75;;;;;;;10.91;61.82;102658.41;4970560;28;119204;-64
2021/10/10 08:15:39;;;;;;;20.80;13.10;;;;;;;11.02;61.62;102664.38;4980077;28;119004;-64
2021/10/10 08:18:08;;;;;;;22.25;12.35;;;;;;;11.14;61.61;102667.72;4988223;28;124336;-64
2021/10/10 08:20:38;;;;;;;21.98;13.18;;;;;;;11.19;61.33;102665.84;4956082;28;123342;-64
2021/10/10 08:23:06;;;;;;;22.33;13.00;;;;;;;11.24;61.26;102664.84;4989043;28;119605;-64
2021/10/10 08:25:33;;;;;;;24.45;13.55;;;;;;;11.31;61.34;102676.25;4988139;28;118977;-64
2021/10/10 08:28:00;;;;;;;24.15;13.18;;;;;;;11.37;61.54;102681.41;4989015;28;123928;-64
2021/10/10 08:30:29;;;;;;;22.08;13.48;;;;;;;11.42;61.57;102684.88;4986672;28;123804;-63
2021/10/10 08:32:56;;;;;;;20.40;12.63;;;;;;;11.50;61.58;102682.94;4988332;28;119162;-64
2021/10/10 08:35:23;;;;;;;24.85;13.52;;;;;;;11.60;61.50;102682.75;4970699;28;118959;-64
2021/10/10 08:37:50;;;;;;;22.92;13.50;;;;;;;11.69;61.69;102683.44;4988829;28;124198;-64
2021/10/10 08:40:19;;;;;;;24.13;14.30;;;;;;;11.81;61.88;102671.72;4971823;28;122695;-63
2021/10/10 08:42:49;;;;;;;24.52;14.30;;;;;;;11.92;61.69;102683.91;4971681;28;119768;-64
2021/10/10 08:45:29;;;;;;;26.85;14.50;;;;;;;12.02;61.73;102680.19;4971966;28;117970;-63
2021/10/10 08:47:56;;;;;;;25.33;14.43;;;;;;;12.15;61.86;102691.38;4988480;28;124011;-64
2021/10/10 08:50:30;;;;;;;26.38;14.57;;;;;;;12.22;61.67;102688.59;4971290;28;123396;-64
2021/10/10 08:53:00;;;;;;;26.77;15.73;;;;;;;12.29;61.78;102684.00;4976300;28;120649;-65
2021/10/10 08:55:31;;;;;;;26.55;15.32;;;;;;;12.38;61.69;102688.22;4988396;28;119040;-64
2021/10/10 08:58:00;;;;;;;32.53;15.40;;;;;;;12.45;61.56;102695.13;4971955;28;123521;-63
2021/10/10 09:00:32;;;;;;;37.60;15.68;;;;;;;12.49;61.69;102696.84;4991774;28;124839;-64
2021/10/10 09:03:09;;;;;;;26.80;15.48;;;;;;;12.55;61.57;102691.38;4988368;28;119390;-63
2021/10/10 09:05:49;;;;;;;28.00;15.98;;;;;;;12.61;61.47;102701.84;4992746;28;119041;-64
2021/10/10 09:08:18;;;;;;;27.85;16.42;;;;;;;12.66;61.61;102710.59;4990512;28;123911;-63
2021/10/10 09:10:56;;;;;;;27.13;16.60;;;;;;;12.74;61.73;102706.88;4991819;28;124199;-64
2021/10/10 09:13:33;;;;;;;30.95;16.65;;;;;;;12.81;61.72;102705.81;4990267;28;120084;-64
2021/10/10 09:16:02;;;;;;;30.73;16.85;;;;;;;12.89;61.79;102706.50;4998261;22;119079;-70
2021/10/10 09:18:40;;;;;;;32.28;17.52;;;;;;;12.98;61.83;102710.72;4965303;28;124459;-70
2021/10/10 09:21:22;;;;;;;27.67;17.00;;;;;;;13.11;62.02;102711.25;4960191;28;123477;-70
2021/10/10 09:23:52;;;;;;;29.45;16.25;;;;;;;13.21;61.90;102707.47;4974696;28;119762;-70
2021/10/10 09:26:20;;;;;;;27.55;16.85;;;;;;;13.31;62.00;102703.66;4970403;28;119109;-70
2021/10/10 09:28:49;;;;;;;30.13;17.33;;;;;;;13.42;62.05;102700.72;4966785;28;123789;-70
2021/10/10 09:31:17;;;;;;;28.52;17.52;;;;;;;13.53;62.22;102703.09;4937356;28;124165;-70
2021/10/10 09:33:56;;;;;;;31.83;18.23;;;;;;;13.65;62.18;102702.75;4950263;28;118513;-70
2021/10/10 09:36:26;;;;;;;36.85;20.30;;;;;;;13.79;62.22;102705.91;4947117;28;118196;-70
2021/10/10 09:39:02;;;;;;;34.55;19.65;;;;;;;13.91;62.05;102709.13;4954853;28;124842;-70
2021/10/10 09:41:43;;;;;;;;;;;;;;;13.97;61.76;102698.28;4955125;28;125239;-70
2021/10/10 09:44:20;;;;;;;35.08;19.50;;;;;;;14.08;61.58;102700.66;4932167;28;120244;-70
2021/10/10 09:46:49;;;;;;;38.08;20.23;;;;;;;14.14;61.70;102706.63;4952485;28;120217;-71
2021/10/10 09:49:21;;;;;;;37.15;20.30;;;;;;;14.20;61.50;102700.25;4938163;28;123729;-72
2021/10/10 09:51:48;;;;;;;39.47;20.95;;;;;;;14.24;61.42;102695.69;4948896;28;122992;-70
2021/10/10 09:54:15;;;;;;;38.25;21.60;;;;;;;14.28;61.47;102702.69;4950031;28;119443;-71
2021/10/10 09:57:03;;;;;;;38.08;21.73;;;;;;;14.35;61.51;102698.91;4959196;28;118921;-71
2021/10/10 09:59:31;;;;;;;36.67;21.25;;;;;;;14.44;61.61;102697.75;4960049;28;124086;-71
2021/10/10 10:01:58;;;;;;;38.45;21.92;;;;;;;14.52;61.52;102691.28;4952781;28;124162;-71
2021/10/10 10:04:26;;;;;;;37.60;22.15;;;;;;;14.61;61.60;102684.78;4963917;28;118882;-70
2021/10/10 10:06:53;;;;;;;38.00;22.10;;;;;;;14.71;61.65;102680.03;4945463;28;119078;-71
2021/10/10 10:09:21;;;;;;;38.55;22.30;;;;;;;14.78;61.38;102678.91;4929251;28;124649;-70
2021/10/10 10:11:48;;;;;;;36.85;21.85;;;;;;;14.83;61.13;102674.28;4950351;28;122269;-71
2021/10/10 10:14:17;;;;;;;36.75;21.65;;;;;;;14.86;61.08;102684.88;4948052;28;119525;-71
2021/10/10 10:16:49;;;;;;;39.95;23.13;;;;;;;14.89;61.08;102684.75;4959434;28;119139;-71
2021/10/10 10:19:21;;;;;;;43.33;23.98;;;;;;;14.91;60.98;102671.38;4950243;28;123829;-71
2021/10/10 10:21:52;;;;;;;40.78;22.58;;;;;;;14.92;60.88;102665.97;4948565;28;123950;-71
2021/10/10 10:24:22;;;;;;;40.47;22.90;;;;;;;14.92;60.89;102668.66;4951438;28;119309;-70
2021/10/10 10:26:50;;;;;;;44.33;24.15;;;;;;;14.96;61.02;102664.94;4932658;28;118918;-70
2021/10/10 10:29:23;;;;;;;45.38;26.20;;;;;;;15.02;60.95;102665.66;4934773;28;124063;-71
2021/10/10 10:31:52;;;;;;;45.63;25.25;;;;;;;15.06;61.06;102661.97;4946777;28;124589;-70
2021/10/10 10:34:38;;;;;;;47.67;26.60;;;;;;;15.10;61.03;102660.94;4950422;28;120064;-71
2021/10/10 10:37:11;;;;;;;46.17;26.35;;;;;;;15.17;61.01;102657.13;4940811;28;119859;-70
2021/10/10 10:39:44;;;;;;;49.95;28.13;;;;;;;15.24;61.04;102658.66;4933308;28;124614;-71
2021/10/10 10:42:23;;;;;;;52.77;29.37;;;;;;;15.30;60.91;102668.25;4941731;28;123484;-71
2021/10/10 10:44:54;;;;;;;51.25;29.17;;;;;;;15.35;60.81;102672.50;4937577;28;119668;-71
2021/10/10 10:47:27;;;;;;;50.50;29.25;;;;;;;15.42;61.09;102682.94;4924273;28;119039;-71
2021/10/10 10:49:54;;;;;;;52.83;29.63;;;;;;;15.48;61.07;102683.59;4946383;28;124131;-71
2021/10/10 10:52:35;;;;;;;55.95;31.33;;;;;;;15.57;61.20;102695.75;4945180;28;123763;-71
2021/10/10 10:55:05;;;;;;;57.55;32.22;;;;;;;15.66;61.09;102687.38;4927682;28;119271;-71
2021/10/10 10:57:41;;;;;;;60.70;33.25;;;;;;;15.74;61.18;102666.63;4945830;28;120669;-71
2021/10/10 11:00:21;;;;;;;54.88;31.23;;;;;;;15.83;61.21;102651.19;4935293;28;123821;-71
2021/10/10 11:02:57;;;;;;;51.70;30.55;;;;;;;15.94;61.15;102665.00;4935113;28;124414;-71
2021/10/10 11:05:40;;;;;;;58.10;32.33;;;;;;;16.05;61.15;102673.50;4938600;28;119099;-71
2021/10/10 11:08:29;;;;;;;50.92;30.27;;;;;;;16.20;61.20;102679.16;4936877;28;119599;-71
2021/10/10 11:10:59;;;;;;;50.60;29.45;;;;;;;16.33;61.13;102688.44;4936956;28;123777;-71
2021/10/10 11:13:35;;;;;;;49.58;28.65;;;;;;;16.43;60.78;102679.13;4944975;28;125363;-71
2021/10/10 11:16:19;;;;;;;43.10;25.45;;;;;;;16.52;60.41;102670.72;4933498;28;119132;-71
2021/10/10 11:18:49;;;;;;;43.97;25.23;;;;;;;16.62;60.35;102673.03;4913416;28;118793;-71
2021/10/10 11:21:38;;;;;;;42.47;25.73;;;;;;;16.71;60.29;102678.00;4928580;28;123902;-71